sensor_id;sensor_type;location;lat;lon;timestamp;temperature;humidity
18880;DHT22;9572;52.378;13.404;2022-08-01T00:00:17;22.10;99.90
18880;DHT22;9572;52.378;13.404;2022-08-01T00:02:45;22.00;99.90
18880;DHT22;9572;52.378;13.404;2022-08-01T00:05:12;22.00;99.90
18880;DHT22;9572;52.378;13.404;2022-08-01T00:07:39;22.00;99.90
18880;DHT22;9572;52.378;13.404;2022-08-01T00:10:08;21.90;99.90
18880;DHT22;9572;52.378;13.404;2022-08-01T00:12:36;21.90;99.90
18880;DHT22;9572;52.378;13.404;2022-08-01T00:15:04;21.80;99.90
18880;DHT22;9572;52.378;13.404;2022-08-01T00:17:32;21.80;99.90
18880;DHT22;9572;52.378;13.404;2022-08-01T00:20:00;21.80;99.90
18880;DHT22;9572;52.378;13.404;2022-08-01T00:22:28;21.70;99.90
18880;DHT22;9572;52.378;13.404;2022-08-01T00:24:55;21.70;99.90
18880;DHT22;9572;52.378;13.404;2022-08-01T00:27:22;21.60;99.90
18880;DHT22;9572;52.378;13.404;2022-08-01T00:29:49;21.60;99.90
18880;DHT22;9572;52.378;13.404;2022-08-01T00:32:16;21.60;99.90
18880;DHT22;9572;52.378;13.404;2022-08-01T00:34:43;21.60;99.90
18880;DHT22;9572;52.378;13.404;2022-08-01T00:37:11;21.60;99.90
18880;DHT22;9572;52.378;13.404;2022-08-01T00:39:38;21.60;99.90
18880;DHT22;9572;52.378;13.404;2022-08-01T00:42:06;21.50;99.90
18880;DHT22;9572;52.378;13.404;2022-08-01T00:44:33;21.50;99.90
18880;DHT22;9572;52.378;13.404;2022-08-01T00:47:00;21.40;99.90
18880;DHT22;9572;52.378;13.404;2022-08-01T00:49:27;21.40;99.90
18880;DHT22;9572;52.378;13.404;2022-08-01T00:51:55;21.50;99.90
18880;DHT22;9572;52.378;13.404;2022-08-01T00:54:26;21.40;99.90
18880;DHT22;9572;52.378;13.404;2022-08-01T00:56:53;21.40;99.90
18880;DHT22;9572;52.378;13.404;2022-08-01T00:59:21;21.40;99.90
18880;DHT22;9572;52.378;13.404;2022-08-01T01:01:48;21.30;99.90
18880;DHT22;9572;52.378;13.404;2022-08-01T01:04:16;21.30;99.90
18880;DHT22;9572;52.378;13.404;2022-08-01T01:06:47;21.20;99.90
18880;DHT22;9572;52.378;13.404;2022-08-01T01:11:59;21.20;99.90
18880;DHT22;9572;52.378;13.404;2022-08-01T01:14:33;21.10;99.90
18880;DHT22;9572;52.378;13.404;2022-08-01T01:17:02;21.10;99.90
18880;DHT22;9572;52.378;13.404;2022-08-01T01:19:34;21.10;99.90
18880;DHT22;9572;52.378;13.404;2022-08-01T01:22:27;21.10;99.90
18880;DHT22;9572;52.378;13.404;2022-08-01T01:25:17;21.10;99.90
18880;DHT22;9572;52.378;13.404;2022-08-01T01:27:53;21.00;99.90
18880;DHT22;9572;52.378;13.404;2022-08-01T01:30:28;21.00;99.90
18880;DHT22;9572;52.378;13.404;2022-08-01T01:32:59;21.00;99.90
18880;DHT22;9572;52.378;13.404;2022-08-01T01:35:31;20.90;99.90
18880;DHT22;9572;52.378;13.404;2022-08-01T01:38:04;20.90;99.90
18880;DHT22;9572;52.378;13.404;2022-08-01T01:40:32;20.90;99.90
18880;DHT22;9572;52.378;13.404;2022-08-01T01:43:00;20.80;99.90
18880;DHT22;9572;52.378;13.404;2022-08-01T01:45:28;20.80;99.90
18880;DHT22;9572;52.378;13.404;2022-08-01T01:47:57;20.80;99.90
18880;DHT22;9572;52.378;13.404;2022-08-01T01:50:25;20.80;99.90
18880;DHT22;9572;52.378;13.404;2022-08-01T01:52:53;20.70;99.90
18880;DHT22;9572;52.378;13.404;2022-08-01T01:55:24;20.70;99.90
18880;DHT22;9572;52.378;13.404;2022-08-01T01:57:53;20.70;99.90
18880;DHT22;9572;52.378;13.404;2022-08-01T02:00:21;20.70;99.90
18880;DHT22;9572;52.378;13.404;2022-08-01T02:02:50;20.70;99.90
18880;DHT22;9572;52.378;13.404;2022-08-01T02:05:18;20.70;99.90
18880;DHT22;9572;52.378;13.404;2022-08-01T02:07:47;20.70;99.90
18880;DHT22;9572;52.378;13.404;2022-08-01T02:10:16;20.70;99.90
18880;DHT22;9572;52.378;13.404;2022-08-01T02:12:46;20.70;99.90
18880;DHT22;9572;52.378;13.404;2022-08-01T02:15:15;20.60;99.90
18880;DHT22;9572;52.378;13.404;2022-08-01T02:17:47;20.70;99.90
18880;DHT22;9572;52.378;13.404;2022-08-01T02:20:16;20.70;99.90
18880;DHT22;9572;52.378;13.404;2022-08-01T02:22:47;20.60;99.90
18880;DHT22;9572;52.378;13.404;2022-08-01T02:25:20;20.50;99.90
18880;DHT22;9572;52.378;13.404;2022-08-01T02:27:56;20.50;99.90
18880;DHT22;9572;52.378;13.404;2022-08-01T02:30:29;20.50;99.90
18880;DHT22;9572;52.378;13.404;2022-08-01T02:33:02;20.40;99.90
18880;DHT22;9572;52.378;13.404;2022-08-01T02:35:35;20.40;99.90
18880;DHT22;9572;52.378;13.404;2022-08-01T02:38:05;20.30;99.90
18880;DHT22;9572;52.378;13.404;2022-08-01T02:40:34;20.30;99.90
18880;DHT22;9572;52.378;13.404;2022-08-01T02:43:05;20.30;99.90
18880;DHT22;9572;52.378;13.404;2022-08-01T02:45:34;20.30;99.90
18880;DHT22;9572;52.378;13.404;2022-08-01T02:48:09;20.20;99.90
18880;DHT22;9572;52.378;13.404;2022-08-01T02:50:45;20.20;99.90
18880;DHT22;9572;52.378;13.404;2022-08-01T02:53:14;20.20;99.90
18880;DHT22;9572;52.378;13.404;2022-08-01T02:55:44;20.20;99.90
18880;DHT22;9572;52.378;13.404;2022-08-01T02:58:14;20.20;99.90
18880;DHT22;9572;52.378;13.404;2022-08-01T03:00:43;20.20;99.90
18880;DHT22;9572;52.378;13.404;2022-08-01T03:03:12;20.10;99.90
18880;DHT22;9572;52.378;13.404;2022-08-01T03:05:47;20.10;99.90
18880;DHT22;9572;52.378;13.404;2022-08-01T03:08:15;20.00;99.90
18880;DHT22;9572;52.378;13.404;2022-08-01T03:10:44;20.00;99.90
18880;DHT22;9572;52.378;13.404;2022-08-01T03:13:13;19.90;99.90
18880;DHT22;9572;52.378;13.404;2022-08-01T03:15:43;19.90;99.90
18880;DHT22;9572;52.378;13.404;2022-08-01T03:18:11;19.90;99.90
18880;DHT22;9572;52.378;13.404;2022-08-01T03:20:38;19.90;99.90
18880;DHT22;9572;52.378;13.404;2022-08-01T03:23:10;19.90;99.90
18880;DHT22;9572;52.378;13.404;2022-08-01T03:25:40;19.90;99.90
18880;DHT22;9572;52.378;13.404;2022-08-01T03:28:08;19.80;99.90
18880;DHT22;9572;52.378;13.404;2022-08-01T03:30:40;19.80;99.90
18880;DHT22;9572;52.378;13.404;2022-08-01T03:33:09;19.80;99.90
18880;DHT22;9572;52.378;13.404;2022-08-01T03:35:41;19.80;99.90
18880;DHT22;9572;52.378;13.404;2022-08-01T03:38:12;19.70;99.90
18880;DHT22;9572;52.378;13.404;2022-08-01T03:40:42;19.70;99.90
18880;DHT22;9572;52.378;13.404;2022-08-01T03:43:16;19.70;99.90
18880;DHT22;9572;52.378;13.404;2022-08-01T03:45:49;19.70;99.90
18880;DHT22;9572;52.378;13.404;2022-08-01T03:48:19;19.70;99.90
18880;DHT22;9572;52.378;13.404;2022-08-01T03:50:50;19.80;99.90
18880;DHT22;9572;52.378;13.404;2022-08-01T03:53:20;19.80;99.90
18880;DHT22;9572;52.378;13.404;2022-08-01T03:55:49;19.80;99.90
18880;DHT22;9572;52.378;13.404;2022-08-01T03:58:17;19.90;99.90
18880;DHT22;9572;52.378;13.404;2022-08-01T04:00:44;19.90;99.90
18880;DHT22;9572;52.378;13.404;2022-08-01T04:03:12;19.90;99.90
18880;DHT22;9572;52.378;13.404;2022-08-01T04:05:40;19.90;99.90
18880;DHT22;9572;52.378;13.404;2022-08-01T04:08:07;19.90;99.90
18880;DHT22;9572;52.378;13.404;2022-08-01T04:10:36;19.90;99.90
18880;DHT22;9572;52.378;13.404;2022-08-01T04:13:03;20.00;99.90
18880;DHT22;9572;52.378;13.404;2022-08-01T04:15:30;20.00;99.90
18880;DHT22;9572;52.378;13.404;2022-08-01T04:17:57;20.10;99.90
18880;DHT22;9572;52.378;13.404;2022-08-01T04:20:24;20.10;99.90
18880;DHT22;9572;52.378;13.404;2022-08-01T04:22:51;20.10;99.90
18880;DHT22;9572;52.378;13.404;2022-08-01T04:25:23;20.20;99.90
18880;DHT22;9572;52.378;13.404;2022-08-01T04:27:53;20.20;99.90
18880;DHT22;9572;52.378;13.404;2022-08-01T04:30:24;20.20;99.90
18880;DHT22;9572;52.378;13.404;2022-08-01T04:32:54;20.20;99.90
18880;DHT22;9572;52.378;13.404;2022-08-01T04:35:22;20.20;99.90
18880;DHT22;9572;52.378;13.404;2022-08-01T04:37:51;20.20;99.90
18880;DHT22;9572;52.378;13.404;2022-08-01T04:40:19;20.30;99.90
18880;DHT22;9572;52.378;13.404;2022-08-01T04:42:48;20.30;99.90
18880;DHT22;9572;52.378;13.404;2022-08-01T04:45:18;20.30;99.90
18880;DHT22;9572;52.378;13.404;2022-08-01T04:47:45;20.30;99.90
18880;DHT22;9572;52.378;13.404;2022-08-01T04:50:13;20.30;99.90
18880;DHT22;9572;52.378;13.404;2022-08-01T04:52:40;20.40;99.90
18880;DHT22;9572;52.378;13.404;2022-08-01T04:55:09;20.50;99.90
18880;DHT22;9572;52.378;13.404;2022-08-01T04:57:38;20.40;99.90
18880;DHT22;9572;52.378;13.404;2022-08-01T05:00:07;20.40;99.90
18880;DHT22;9572;52.378;13.404;2022-08-01T05:02:37;20.40;99.90
18880;DHT22;9572;52.378;13.404;2022-08-01T05:05:05;20.50;99.90
18880;DHT22;9572;52.378;13.404;2022-08-01T05:07:32;20.50;99.90
18880;DHT22;9572;52.378;13.404;2022-08-01T05:10:02;20.40;99.90
18880;DHT22;9572;52.378;13.404;2022-08-01T05:12:29;20.50;99.90
18880;DHT22;9572;52.378;13.404;2022-08-01T05:14:57;20.50;99.90
18880;DHT22;9572;52.378;13.404;2022-08-01T05:17:24;20.50;99.90
18880;DHT22;9572;52.378;13.404;2022-08-01T05:19:52;20.50;99.90
18880;DHT22;9572;52.378;13.404;2022-08-01T05:22:19;20.50;99.90
18880;DHT22;9572;52.378;13.404;2022-08-01T05:24:46;20.50;99.90
18880;DHT22;9572;52.378;13.404;2022-08-01T05:27:13;20.50;99.90
18880;DHT22;9572;52.378;13.404;2022-08-01T05:29:40;20.50;99.90
18880;DHT22;9572;52.378;13.404;2022-08-01T05:32:07;20.50;99.90
18880;DHT22;9572;52.378;13.404;2022-08-01T05:34:34;20.50;99.90
18880;DHT22;9572;52.378;13.404;2022-08-01T05:37:03;20.60;99.90
18880;DHT22;9572;52.378;13.404;2022-08-01T05:39:30;20.70;99.90
18880;DHT22;9572;52.378;13.404;2022-08-01T05:41:57;20.80;99.90
18880;DHT22;9572;52.378;13.404;2022-08-01T05:44:24;20.90;99.90
18880;DHT22;9572;52.378;13.404;2022-08-01T05:46:52;20.90;99.90
18880;DHT22;9572;52.378;13.404;2022-08-01T05:49:19;21.00;99.90
18880;DHT22;9572;52.378;13.404;2022-08-01T05:51:46;21.00;99.90
18880;DHT22;9572;52.378;13.404;2022-08-01T05:54:14;21.10;99.90
18880;DHT22;9572;52.378;13.404;2022-08-01T05:56:41;21.20;99.90
18880;DHT22;9572;52.378;13.404;2022-08-01T05:59:08;21.20;99.90
18880;DHT22;9572;52.378;13.404;2022-08-01T06:01:35;21.40;99.90
18880;DHT22;9572;52.378;13.404;2022-08-01T06:04:02;21.50;99.90
18880;DHT22;9572;52.378;13.404;2022-08-01T06:06:29;21.60;99.90
18880;DHT22;9572;52.378;13.404;2022-08-01T06:08:56;21.60;99.90
18880;DHT22;9572;52.378;13.404;2022-08-01T06:11:24;21.60;99.90
18880;DHT22;9572;52.378;13.404;2022-08-01T06:13:51;21.60;99.90
18880;DHT22;9572;52.378;13.404;2022-08-01T06:16:19;21.50;99.90
18880;DHT22;9572;52.378;13.404;2022-08-01T06:18:46;21.60;99.90
18880;DHT22;9572;52.378;13.404;2022-08-01T06:21:12;21.70;99.90
18880;DHT22;9572;52.378;13.404;2022-08-01T06:23:39;21.60;99.90
18880;DHT22;9572;52.378;13.404;2022-08-01T06:26:07;21.70;99.90
18880;DHT22;9572;52.378;13.404;2022-08-01T06:28:36;21.60;99.90
18880;DHT22;9572;52.378;13.404;2022-08-01T06:31:04;21.70;99.90
18880;DHT22;9572;52.378;13.404;2022-08-01T06:33:31;21.80;99.90
18880;DHT22;9572;52.378;13.404;2022-08-01T06:35:57;22.00;99.90
18880;DHT22;9572;52.378;13.404;2022-08-01T06:38:24;22.00;99.90
18880;DHT22;9572;52.378;13.404;2022-08-01T06:40:51;22.00;99.90
18880;DHT22;9572;52.378;13.404;2022-08-01T06:43:18;21.90;99.90
18880;DHT22;9572;52.378;13.404;2022-08-01T06:45:46;21.90;99.90
18880;DHT22;9572;52.378;13.404;2022-08-01T06:48:13;21.80;99.90
18880;DHT22;9572;52.378;13.404;2022-08-01T06:50:40;21.80;99.90
18880;DHT22;9572;52.378;13.404;2022-08-01T06:53:07;21.60;99.90
18880;DHT22;9572;52.378;13.404;2022-08-01T06:55:34;21.40;99.90
18880;DHT22;9572;52.378;13.404;2022-08-01T06:58:01;21.30;99.90
18880;DHT22;9572;52.378;13.404;2022-08-01T07:00:28;21.50;99.90
18880;DHT22;9572;52.378;13.404;2022-08-01T07:02:57;21.70;99.90
18880;DHT22;9572;52.378;13.404;2022-08-01T07:05:25;21.90;99.90
18880;DHT22;9572;52.378;13.404;2022-08-01T07:07:52;21.90;99.90
18880;DHT22;9572;52.378;13.404;2022-08-01T07:10:19;21.90;99.90
18880;DHT22;9572;52.378;13.404;2022-08-01T07:12:46;22.10;99.90
18880;DHT22;9572;52.378;13.404;2022-08-01T07:15:13;22.00;99.90
18880;DHT22;9572;52.378;13.404;2022-08-01T07:17:42;21.90;99.90
18880;DHT22;9572;52.378;13.404;2022-08-01T07:20:12;21.80;99.90
18880;DHT22;9572;52.378;13.404;2022-08-01T07:22:39;21.80;99.90
18880;DHT22;9572;52.378;13.404;2022-08-01T07:25:07;21.80;99.90
18880;DHT22;9572;52.378;13.404;2022-08-01T07:27:34;21.70;99.90
18880;DHT22;9572;52.378;13.404;2022-08-01T07:30:02;21.70;99.90
18880;DHT22;9572;52.378;13.404;2022-08-01T07:32:29;21.70;99.90
18880;DHT22;9572;52.378;13.404;2022-08-01T07:34:57;21.70;99.90
18880;DHT22;9572;52.378;13.404;2022-08-01T07:37:25;21.70;99.90
18880;DHT22;9572;52.378;13.404;2022-08-01T07:39:52;21.80;99.90
18880;DHT22;9572;52.378;13.404;2022-08-01T07:42:19;21.70;99.90
18880;DHT22;9572;52.378;13.404;2022-08-01T07:44:45;21.70;99.90
18880;DHT22;9572;52.378;13.404;2022-08-01T07:47:12;21.70;99.90
18880;DHT22;9572;52.378;13.404;2022-08-01T07:49:40;21.60;99.90
18880;DHT22;9572;52.378;13.404;2022-08-01T07:52:07;21.50;99.90
18880;DHT22;9572;52.378;13.404;2022-08-01T07:54:36;21.50;99.90
18880;DHT22;9572;52.378;13.404;2022-08-01T07:57:03;21.60;99.90
18880;DHT22;9572;52.378;13.404;2022-08-01T07:59:30;21.80;99.90
18880;DHT22;9572;52.378;13.404;2022-08-01T08:01:58;21.90;99.90
18880;DHT22;9572;52.378;13.404;2022-08-01T08:04:25;22.00;99.90
18880;DHT22;9572;52.378;13.404;2022-08-01T08:06:51;22.10;99.90
18880;DHT22;9572;52.378;13.404;2022-08-01T08:09:19;22.10;99.90
18880;DHT22;9572;52.378;13.404;2022-08-01T08:14:22;21.90;99.90
18880;DHT22;9572;52.378;13.404;2022-08-01T08:16:50;21.80;99.90
18880;DHT22;9572;52.378;13.404;2022-08-01T08:19:17;21.70;99.90
18880;DHT22;9572;52.378;13.404;2022-08-01T08:21:43;21.80;99.90
18880;DHT22;9572;52.378;13.404;2022-08-01T08:24:10;21.80;99.90
18880;DHT22;9572;52.378;13.404;2022-08-01T08:26:46;21.80;99.90
18880;DHT22;9572;52.378;13.404;2022-08-01T08:29:13;21.70;99.90
18880;DHT22;9572;52.378;13.404;2022-08-01T08:31:42;21.50;99.90
18880;DHT22;9572;52.378;13.404;2022-08-01T08:34:09;21.40;99.90
18880;DHT22;9572;52.378;13.404;2022-08-01T08:36:36;21.30;99.90
18880;DHT22;9572;52.378;13.404;2022-08-01T08:39:04;21.30;99.90
18880;DHT22;9572;52.378;13.404;2022-08-01T08:41:31;21.30;99.90
18880;DHT22;9572;52.378;13.404;2022-08-01T08:43:59;21.50;99.90
18880;DHT22;9572;52.378;13.404;2022-08-01T08:46:27;21.70;99.90
18880;DHT22;9572;52.378;13.404;2022-08-01T08:48:56;21.80;99.90
18880;DHT22;9572;52.378;13.404;2022-08-01T08:51:25;21.90;99.90
18880;DHT22;9572;52.378;13.404;2022-08-01T08:53:54;22.20;99.90
18880;DHT22;9572;52.378;13.404;2022-08-01T08:56:23;22.70;99.90
18880;DHT22;9572;52.378;13.404;2022-08-01T08:58:51;22.90;99.90
18880;DHT22;9572;52.378;13.404;2022-08-01T09:01:18;23.10;99.90
18880;DHT22;9572;52.378;13.404;2022-08-01T09:03:45;23.10;99.90
18880;DHT22;9572;52.378;13.404;2022-08-01T09:06:14;22.80;99.90
18880;DHT22;9572;52.378;13.404;2022-08-01T09:08:40;22.60;99.90
18880;DHT22;9572;52.378;13.404;2022-08-01T09:11:07;22.50;99.90
18880;DHT22;9572;52.378;13.404;2022-08-01T09:13:34;22.50;99.90
18880;DHT22;9572;52.378;13.404;2022-08-01T09:16:02;22.60;99.90
18880;DHT22;9572;52.378;13.404;2022-08-01T09:18:31;22.70;99.90
18880;DHT22;9572;52.378;13.404;2022-08-01T09:21:15;22.70;99.90
18880;DHT22;9572;52.378;13.404;2022-08-01T09:23:45;22.60;99.90
18880;DHT22;9572;52.378;13.404;2022-08-01T09:26:14;22.50;99.90
18880;DHT22;9572;52.378;13.404;2022-08-01T09:28:42;22.30;99.90
18880;DHT22;9572;52.378;13.404;2022-08-01T09:31:10;22.20;99.90
18880;DHT22;9572;52.378;13.404;2022-08-01T09:33:48;22.10;99.90
18880;DHT22;9572;52.378;13.404;2022-08-01T09:36:18;22.10;99.90
18880;DHT22;9572;52.378;13.404;2022-08-01T09:38:45;22.10;99.90
18880;DHT22;9572;52.378;13.404;2022-08-01T09:41:12;22.00;99.90
18880;DHT22;9572;52.378;13.404;2022-08-01T09:43:39;21.90;99.90
18880;DHT22;9572;52.378;13.404;2022-08-01T09:46:10;21.90;99.90
18880;DHT22;9572;52.378;13.404;2022-08-01T09:48:38;21.90;99.90
18880;DHT22;9572;52.378;13.404;2022-08-01T09:51:06;22.10;99.90
18880;DHT22;9572;52.378;13.404;2022-08-01T09:53:46;22.20;99.90
18880;DHT22;9572;52.378;13.404;2022-08-01T09:56:14;22.40;99.90
18880;DHT22;9572;52.378;13.404;2022-08-01T09:58:51;22.50;99.90
18880;DHT22;9572;52.378;13.404;2022-08-01T10:01:20;22.60;99.90
18880;DHT22;9572;52.378;13.404;2022-08-01T10:04:04;22.70;99.90
18880;DHT22;9572;52.378;13.404;2022-08-01T10:06:31;22.70;99.90
18880;DHT22;9572;52.378;13.404;2022-08-01T10:08:59;22.80;99.90
18880;DHT22;9572;52.378;13.404;2022-08-01T10:11:26;22.80;99.90
18880;DHT22;9572;52.378;13.404;2022-08-01T10:13:55;22.70;99.90
18880;DHT22;9572;52.378;13.404;2022-08-01T10:16:23;22.60;99.90
18880;DHT22;9572;52.378;13.404;2022-08-01T10:18:51;22.60;99.90
18880;DHT22;9572;52.378;13.404;2022-08-01T10:21:20;22.50;99.90
18880;DHT22;9572;52.378;13.404;2022-08-01T10:23:47;22.40;99.90
18880;DHT22;9572;52.378;13.404;2022-08-01T10:26:16;22.20;99.90
18880;DHT22;9572;52.378;13.404;2022-08-01T10:28:44;22.20;99.90
18880;DHT22;9572;52.378;13.404;2022-08-01T10:31:16;22.10;99.90
18880;DHT22;9572;52.378;13.404;2022-08-01T10:33:45;22.00;99.90
18880;DHT22;9572;52.378;13.404;2022-08-01T10:36:12;22.00;99.90
18880;DHT22;9572;52.378;13.404;2022-08-01T10:38:39;22.10;99.90
18880;DHT22;9572;52.378;13.404;2022-08-01T10:41:06;22.20;99.90
18880;DHT22;9572;52.378;13.404;2022-08-01T10:43:36;22.50;99.90
18880;DHT22;9572;52.378;13.404;2022-08-01T10:46:03;22.70;99.90
18880;DHT22;9572;52.378;13.404;2022-08-01T10:48:38;22.80;99.90
18880;DHT22;9572;52.378;13.404;2022-08-01T10:51:07;22.90;99.90
18880;DHT22;9572;52.378;13.404;2022-08-01T10:53:34;22.80;99.90
18880;DHT22;9572;52.378;13.404;2022-08-01T10:56:03;22.80;99.90
18880;DHT22;9572;52.378;13.404;2022-08-01T10:58:33;22.80;99.90
18880;DHT22;9572;52.378;13.404;2022-08-01T11:01:30;22.80;99.90
18880;DHT22;9572;52.378;13.404;2022-08-01T11:04:07;22.70;99.90
18880;DHT22;9572;52.378;13.404;2022-08-01T11:06:46;22.70;99.90
18880;DHT22;9572;52.378;13.404;2022-08-01T11:09:23;22.60;99.90
18880;DHT22;9572;52.378;13.404;2022-08-01T11:12:02;22.60;99.90
18880;DHT22;9572;52.378;13.404;2022-08-01T11:14:31;22.70;99.90
18880;DHT22;9572;52.378;13.404;2022-08-01T11:17:31;22.70;99.90
18880;DHT22;9572;52.378;13.404;2022-08-01T11:20:06;22.80;99.90
18880;DHT22;9572;52.378;13.404;2022-08-01T11:28:46;23.20;99.90
18880;DHT22;9572;52.378;13.404;2022-08-01T11:31:33;23.30;99.90
18880;DHT22;9572;52.378;13.404;2022-08-01T11:34:01;23.40;99.90
18880;DHT22;9572;52.378;13.404;2022-08-01T11:36:28;23.30;99.90
18880;DHT22;9572;52.378;13.404;2022-08-01T11:39:13;23.10;99.90
18880;DHT22;9572;52.378;13.404;2022-08-01T11:41:42;23.00;99.90
18880;DHT22;9572;52.378;13.404;2022-08-01T11:44:10;22.90;99.90
18880;DHT22;9572;52.378;13.404;2022-08-01T11:46:49;22.70;99.90
18880;DHT22;9572;52.378;13.404;2022-08-01T11:49:31;22.60;99.90
18880;DHT22;9572;52.378;13.404;2022-08-01T11:52:02;22.50;99.90
18880;DHT22;9572;52.378;13.404;2022-08-01T11:54:31;22.50;99.90
18880;DHT22;9572;52.378;13.404;2022-08-01T11:56:59;22.50;99.90
18880;DHT22;9572;52.378;13.404;2022-08-01T11:59:27;22.50;99.90
18880;DHT22;9572;52.378;13.404;2022-08-01T12:01:54;22.50;99.90
18880;DHT22;9572;52.378;13.404;2022-08-01T12:04:21;22.50;99.90
18880;DHT22;9572;52.378;13.404;2022-08-01T12:06:49;22.60;99.90
18880;DHT22;9572;52.378;13.404;2022-08-01T12:09:18;22.60;99.90
18880;DHT22;9572;52.378;13.404;2022-08-01T12:11:45;22.60;99.90
18880;DHT22;9572;52.378;13.404;2022-08-01T12:14:17;22.50;99.90
18880;DHT22;9572;52.378;13.404;2022-08-01T12:16:52;22.50;99.90
18880;DHT22;9572;52.378;13.404;2022-08-01T12:19:20;22.60;99.90
18880;DHT22;9572;52.378;13.404;2022-08-01T12:22:10;22.80;99.90
18880;DHT22;9572;52.378;13.404;2022-08-01T12:24:40;23.10;99.90
18880;DHT22;9572;52.378;13.404;2022-08-01T12:27:09;23.30;99.90
18880;DHT22;9572;52.378;13.404;2022-08-01T12:29:38;23.50;99.90
18880;DHT22;9572;52.378;13.404;2022-08-01T12:32:21;23.60;99.90
18880;DHT22;9572;52.378;13.404;2022-08-01T12:34:49;23.80;99.90
18880;DHT22;9572;52.378;13.404;2022-08-01T12:37:17;23.80;99.90
18880;DHT22;9572;52.378;13.404;2022-08-01T12:39:44;23.80;99.90
18880;DHT22;9572;52.378;13.404;2022-08-01T12:42:12;23.90;99.90
18880;DHT22;9572;52.378;13.404;2022-08-01T12:44:39;23.90;99.90
18880;DHT22;9572;52.378;13.404;2022-08-01T12:47:07;23.90;99.90
18880;DHT22;9572;52.378;13.404;2022-08-01T12:49:35;23.90;99.90
18880;DHT22;9572;52.378;13.404;2022-08-01T12:52:04;24.00;99.90
18880;DHT22;9572;52.378;13.404;2022-08-01T12:55:03;24.00;99.90
18880;DHT22;9572;52.378;13.404;2022-08-01T12:57:30;24.10;99.90
18880;DHT22;9572;52.378;13.404;2022-08-01T13:00:12;24.10;99.90
18880;DHT22;9572;52.378;13.404;2022-08-01T13:02:40;24.10;99.90
18880;DHT22;9572;52.378;13.404;2022-08-01T13:05:09;24.10;99.90
18880;DHT22;9572;52.378;13.404;2022-08-01T13:07:42;24.30;99.90
18880;DHT22;9572;52.378;13.404;2022-08-01T13:10:12;24.50;99.90
18880;DHT22;9572;52.378;13.404;2022-08-01T13:12:51;24.60;99.90
18880;DHT22;9572;52.378;13.404;2022-08-01T13:15:21;24.80;99.90
18880;DHT22;9572;52.378;13.404;2022-08-01T13:17:49;24.90;99.90
18880;DHT22;9572;52.378;13.404;2022-08-01T13:20:27;25.00;99.90
18880;DHT22;9572;52.378;13.404;2022-08-01T13:22:54;25.00;99.90
18880;DHT22;9572;52.378;13.404;2022-08-01T13:25:22;24.90;99.90
18880;DHT22;9572;52.378;13.404;2022-08-01T13:27:49;24.80;99.90
18880;DHT22;9572;52.378;13.404;2022-08-01T13:30:36;24.80;99.90
18880;DHT22;9572;52.378;13.404;2022-08-01T13:33:03;24.70;99.90
18880;DHT22;9572;52.378;13.404;2022-08-01T13:35:30;24.50;99.90
18880;DHT22;9572;52.378;13.404;2022-08-01T13:37:57;24.60;99.90
18880;DHT22;9572;52.378;13.404;2022-08-01T13:40:28;24.50;99.90
18880;DHT22;9572;52.378;13.404;2022-08-01T13:42:54;24.50;99.90
18880;DHT22;9572;52.378;13.404;2022-08-01T13:45:24;24.30;99.90
18880;DHT22;9572;52.378;13.404;2022-08-01T13:47:51;24.30;99.90
18880;DHT22;9572;52.378;13.404;2022-08-01T13:50:18;24.40;99.90
18880;DHT22;9572;52.378;13.404;2022-08-01T13:52:45;24.60;99.90
18880;DHT22;9572;52.378;13.404;2022-08-01T13:55:12;25.00;99.90
18880;DHT22;9572;52.378;13.404;2022-08-01T13:57:40;25.20;99.90
18880;DHT22;9572;52.378;13.404;2022-08-01T14:00:09;25.40;99.90
18880;DHT22;9572;52.378;13.404;2022-08-01T14:02:36;25.50;99.90
18880;DHT22;9572;52.378;13.404;2022-08-01T14:05:03;25.50;99.90
18880;DHT22;9572;52.378;13.404;2022-08-01T14:07:30;25.40;99.90
18880;DHT22;9572;52.378;13.404;2022-08-01T14:09:57;25.40;99.90
18880;DHT22;9572;52.378;13.404;2022-08-01T14:12:24;25.40;99.90
18880;DHT22;9572;52.378;13.404;2022-08-01T14:14:55;25.50;99.90
18880;DHT22;9572;52.378;13.404;2022-08-01T14:17:24;25.50;99.90
18880;DHT22;9572;52.378;13.404;2022-08-01T14:19:51;25.40;99.90
18880;DHT22;9572;52.378;13.404;2022-08-01T14:22:18;25.30;99.90
18880;DHT22;9572;52.378;13.404;2022-08-01T14:24:45;25.20;99.90
18880;DHT22;9572;52.378;13.404;2022-08-01T14:27:15;25.10;99.90
18880;DHT22;9572;52.378;13.404;2022-08-01T14:29:41;25.00;99.90
18880;DHT22;9572;52.378;13.404;2022-08-01T14:32:10;25.00;99.90
18880;DHT22;9572;52.378;13.404;2022-08-01T14:34:37;25.00;99.90
18880;DHT22;9572;52.378;13.404;2022-08-01T14:37:04;24.90;99.90
18880;DHT22;9572;52.378;13.404;2022-08-01T14:39:30;24.90;99.90
18880;DHT22;9572;52.378;13.404;2022-08-01T14:41:57;24.90;99.90
18880;DHT22;9572;52.378;13.404;2022-08-01T14:44:24;25.00;99.90
18880;DHT22;9572;52.378;13.404;2022-08-01T14:46:51;25.00;99.90
18880;DHT22;9572;52.378;13.404;2022-08-01T14:49:20;25.00;99.90
18880;DHT22;9572;52.378;13.404;2022-08-01T14:51:46;25.00;99.90
18880;DHT22;9572;52.378;13.404;2022-08-01T14:54:14;25.00;99.90
18880;DHT22;9572;52.378;13.404;2022-08-01T14:56:42;25.00;99.90
18880;DHT22;9572;52.378;13.404;2022-08-01T14:59:09;25.00;99.90
18880;DHT22;9572;52.378;13.404;2022-08-01T15:01:36;25.00;99.90
18880;DHT22;9572;52.378;13.404;2022-08-01T15:04:03;25.00;99.90
18880;DHT22;9572;52.378;13.404;2022-08-01T15:06:32;25.00;99.90
18880;DHT22;9572;52.378;13.404;2022-08-01T15:09:00;25.00;99.90
18880;DHT22;9572;52.378;13.404;2022-08-01T15:11:27;25.00;99.90
18880;DHT22;9572;52.378;13.404;2022-08-01T15:13:56;25.00;99.90
18880;DHT22;9572;52.378;13.404;2022-08-01T15:16:40;25.00;99.90
18880;DHT22;9572;52.378;13.404;2022-08-01T15:19:08;25.00;99.90
18880;DHT22;9572;52.378;13.404;2022-08-01T15:21:36;25.00;99.90
18880;DHT22;9572;52.378;13.404;2022-08-01T15:24:04;25.10;99.90
18880;DHT22;9572;52.378;13.404;2022-08-01T15:26:31;25.10;99.90
18880;DHT22;9572;52.378;13.404;2022-08-01T15:28:58;25.20;99.90
18880;DHT22;9572;52.378;13.404;2022-08-01T15:31:24;25.20;99.90
18880;DHT22;9572;52.378;13.404;2022-08-01T15:33:51;25.30;99.90
18880;DHT22;9572;52.378;13.404;2022-08-01T15:36:18;25.40;99.90
18880;DHT22;9572;52.378;13.404;2022-08-01T15:38:46;25.40;99.90
18880;DHT22;9572;52.378;13.404;2022-08-01T15:41:13;25.20;99.90
18880;DHT22;9572;52.378;13.404;2022-08-01T15:43:40;25.10;99.90
18880;DHT22;9572;52.378;13.404;2022-08-01T15:46:07;24.80;99.90
18880;DHT22;9572;52.378;13.404;2022-08-01T15:48:34;24.80;99.90
18880;DHT22;9572;52.378;13.404;2022-08-01T15:51:01;24.70;99.90
18880;DHT22;9572;52.378;13.404;2022-08-01T15:53:28;24.70;99.90